createdAt,value
2022-11-15T00:00:42.478Z,9.32
2022-11-15T00:03:28.396Z,9.22
2022-11-15T00:06:14.024Z,9.31
2022-11-15T00:08:59.908Z,9.32
2022-11-15T00:11:44.952Z,9.32
2022-11-15T00:14:29.829Z,9.43
2022-11-15T00:17:14.666Z,9.40
2022-11-15T00:19:59.503Z,9.45
2022-11-15T00:22:44.162Z,9.45
2022-11-15T00:25:29.015Z,9.45
2022-11-15T00:28:13.800Z,9.46
2022-11-15T00:31:02.584Z,9.48
2022-11-15T00:33:47.516Z,9.36
2022-11-15T00:36:34.028Z,9.36
2022-11-15T00:39:19.040Z,9.43
2022-11-15T00:42:04.042Z,9.47
2022-11-15T00:44:48.737Z,9.47
2022-11-15T00:47:33.518Z,9.54
2022-11-15T00:50:18.742Z,9.53
2022-11-15T00:53:03.718Z,9.45
2022-11-15T00:55:48.514Z,9.60
2022-11-15T00:58:33.410Z,9.57
2022-11-15T01:01:18.189Z,9.64
2022-11-15T01:04:02.985Z,9.63
2022-11-15T01:06:48.064Z,9.64
2022-11-15T01:09:32.759Z,9.47
2022-11-15T01:12:17.697Z,9.42
2022-11-15T01:15:02.523Z,9.50
2022-11-15T01:17:47.490Z,9.58
2022-11-15T01:20:32.355Z,9.60
2022-11-15T01:23:17.427Z,9.59
2022-11-15T01:26:03.899Z,9.50
2022-11-15T01:28:48.746Z,9.58
2022-11-15T01:31:33.669Z,9.66
2022-11-15T01:34:18.340Z,9.60
2022-11-15T01:37:03.279Z,9.70
2022-11-15T01:39:47.971Z,9.56
2022-11-15T01:42:32.972Z,9.58
2022-11-15T01:45:17.886Z,9.50
2022-11-15T01:48:02.957Z,9.52
2022-11-15T01:50:48.368Z,9.62
2022-11-15T01:53:34.993Z,9.59
2022-11-15T01:56:22.452Z,9.57
2022-11-15T01:59:09.031Z,9.59
2022-11-15T02:01:54.011Z,9.67
2022-11-15T02:04:41.261Z,9.75
2022-11-15T02:07:26.255Z,9.71
2022-11-15T02:10:17.762Z,9.77
2022-11-15T02:13:02.815Z,9.89
2022-11-15T02:16:09.893Z,9.85
2022-11-15T02:18:55.140Z,10.05
2022-11-15T02:21:59.031Z,10.09
2022-11-15T02:24:56.492Z,10.06
2022-11-15T02:27:47.484Z,10.06
2022-11-15T02:30:41.549Z,9.95
2022-11-15T02:33:32.748Z,9.93
2022-11-15T02:36:41.084Z,9.99
2022-11-15T02:39:28.793Z,10.14
2022-11-15T02:42:46.875Z,10.09
2022-11-15T02:45:35.159Z,10.11
2022-11-15T02:48:22.219Z,10.12
2022-11-15T02:51:07.639Z,10.14
2022-11-15T02:53:52.744Z,10.21
2022-11-15T02:56:37.538Z,10.11
2022-11-15T02:59:25.399Z,10.25
2022-11-15T03:02:22.512Z,10.18
2022-11-15T03:05:10.445Z,10.19
2022-11-15T03:08:02.708Z,10.08
2022-11-15T03:10:57.628Z,10.05
2022-11-15T03:14:01.489Z,10.26
2022-11-15T03:16:46.393Z,10.21
2022-11-15T03:19:35.056Z,10.25
2022-11-15T03:22:31.387Z,10.23
2022-11-15T03:25:18.506Z,10.36
2022-11-15T03:28:06.324Z,10.40
2022-11-15T03:30:52.940Z,10.44
2022-11-15T03:33:38.258Z,10.45
2022-11-15T03:36:24.520Z,10.35
2022-11-15T03:39:10.055Z,10.48
2022-11-15T03:42:10.379Z,10.56
2022-11-15T03:45:10.840Z,10.52
2022-11-15T03:48:00.907Z,10.40
2022-11-15T03:50:46.608Z,10.40
2022-11-15T03:53:32.998Z,10.70
2022-11-15T03:56:18.044Z,10.68
2022-11-15T03:59:02.896Z,10.70
2022-11-15T04:01:48.072Z,10.75
2022-11-15T04:04:33.073Z,10.70
2022-11-15T04:07:18.206Z,10.63
2022-11-15T04:10:03.684Z,10.73
2022-11-15T04:12:48.810Z,10.70
2022-11-15T04:15:35.392Z,10.71
2022-11-15T04:18:20.271Z,10.83
2022-11-15T04:21:23.912Z,10.82
2022-11-15T04:24:08.969Z,10.85
2022-11-15T04:26:53.680Z,10.81
2022-11-15T04:29:38.651Z,10.74
2022-11-15T04:32:23.406Z,10.75
2022-11-15T04:35:08.509Z,10.79
2022-11-15T04:37:54.028Z,10.81
2022-11-15T04:40:39.183Z,10.76
2022-11-15T04:43:24.321Z,10.89
2022-11-15T04:46:09.312Z,10.87
2022-11-15T04:48:58.619Z,10.87
2022-11-15T04:51:44.945Z,10.82
2022-11-15T04:54:29.801Z,10.77
2022-11-15T04:57:15.267Z,10.83
2022-11-15T05:00:00.014Z,10.88
2022-11-15T05:03:03.573Z,10.84
2022-11-15T05:05:48.665Z,10.85
2022-11-15T05:08:33.636Z,10.80
2022-11-15T05:11:18.596Z,10.83
2022-11-15T05:14:03.431Z,10.81
2022-11-15T05:16:48.450Z,10.75
2022-11-15T05:19:33.208Z,10.82
2022-11-15T05:22:18.083Z,10.83
2022-11-15T05:25:02.945Z,10.82
2022-11-15T05:27:47.825Z,10.80
2022-11-15T05:30:32.635Z,10.92
2022-11-15T05:33:18.090Z,10.89
2022-11-15T05:36:08.824Z,10.83
2022-11-15T05:38:54.233Z,10.86
2022-11-15T05:41:45.436Z,10.84
2022-11-15T05:44:32.180Z,10.80
2022-11-15T05:47:22.618Z,10.77
2022-11-15T05:50:08.141Z,10.86
2022-11-15T05:52:53.078Z,10.84
2022-11-15T05:55:39.228Z,10.76
2022-11-15T05:58:24.378Z,10.66
2022-11-15T06:01:09.747Z,10.97
2022-11-15T06:03:55.012Z,11.04
2022-11-15T06:06:39.907Z,11.04
2022-11-15T06:09:24.875Z,11.10
2022-11-15T06:12:09.712Z,10.87
2022-11-15T06:14:54.761Z,10.89
2022-11-15T06:17:39.530Z,10.93
2022-11-15T06:20:25.393Z,10.97
2022-11-15T06:23:10.204Z,10.92
2022-11-15T06:25:58.542Z,10.94
2022-11-15T06:28:43.500Z,11.00
2022-11-15T06:31:28.224Z,10.93
2022-11-15T06:34:13.155Z,11.03
2022-11-15T06:36:58.044Z,11.10
2022-11-15T06:39:42.902Z,11.11
2022-11-15T06:42:27.901Z,11.12
2022-11-15T06:45:12.775Z,11.04
2022-11-15T06:47:57.890Z,11.18
2022-11-15T06:50:43.024Z,11.08
2022-11-15T06:53:28.995Z,11.06
2022-11-15T06:56:14.399Z,11.19
2022-11-15T06:58:59.293Z,11.15
2022-11-15T07:01:44.303Z,11.20
2022-11-15T07:04:29.213Z,11.19
2022-11-15T07:07:14.240Z,11.17
2022-11-15T07:09:58.966Z,11.18
2022-11-15T07:12:47.361Z,10.98
2022-11-15T07:15:32.235Z,11.11
2022-11-15T07:18:17.108Z,10.99
2022-11-15T07:21:03.148Z,11.08
2022-11-15T07:23:48.214Z,11.11
2022-11-15T07:26:33.271Z,11.03
2022-11-15T07:29:18.283Z,10.94
2022-11-15T07:32:03.239Z,10.88
2022-11-15T07:34:48.127Z,10.99
2022-11-15T07:37:32.826Z,10.97
2022-11-15T07:40:17.649Z,10.78
2022-11-15T07:43:03.660Z,10.90
2022-11-15T07:45:48.820Z,10.88
2022-11-15T07:48:43.245Z,10.86
2022-11-15T07:51:29.477Z,10.93
2022-11-15T07:54:14.290Z,10.98
2022-11-15T07:57:05.549Z,10.93
2022-11-15T07:59:52.474Z,10.91
2022-11-15T08:02:37.242Z,10.99
2022-11-15T08:05:22.527Z,10.90
2022-11-15T08:08:08.302Z,10.90
2022-11-15T08:10:53.362Z,10.95
2022-11-15T08:13:38.226Z,10.95
2022-11-15T08:16:23.061Z,10.98
2022-11-15T08:19:07.998Z,10.97
2022-11-15T08:21:52.797Z,11.02
2022-11-15T08:24:37.728Z,11.08
2022-11-15T08:27:23.294Z,11.01
2022-11-15T08:30:08.400Z,11.08
2022-11-15T08:32:54.063Z,11.22
2022-11-15T08:35:38.965Z,11.19
2022-11-15T08:38:24.296Z,11.19
2022-11-15T08:41:14.317Z,11.25
2022-11-15T08:43:59.117Z,11.21
2022-11-15T08:46:46.257Z,11.27
2022-11-15T08:49:31.494Z,11.32
2022-11-15T08:52:16.540Z,11.37
2022-11-15T08:55:01.463Z,11.32
2022-11-15T08:57:46.435Z,11.32
2022-11-15T09:00:31.373Z,11.35
2022-11-15T09:03:16.364Z,11.41
2022-11-15T09:06:01.790Z,11.41
2022-11-15T09:08:56.881Z,11.42
2022-11-15T09:11:41.957Z,11.58
2022-11-15T09:14:26.860Z,11.63
2022-11-15T09:17:12.066Z,11.63
2022-11-15T09:19:56.954Z,11.60
2022-11-15T09:22:41.888Z,11.61
2022-11-15T09:25:26.856Z,11.61
2022-11-15T09:28:11.656Z,11.65
2022-11-15T09:30:57.395Z,11.76
2022-11-15T09:33:46.229Z,11.77
2022-11-15T09:36:31.298Z,11.75
2022-11-15T09:39:16.233Z,11.83
2022-11-15T09:42:26.100Z,11.81
2022-11-15T09:45:23.544Z,11.87
2022-11-15T09:48:11.408Z,11.91
2022-11-15T09:51:05.104Z,11.87
2022-11-15T09:54:18.662Z,11.91
2022-11-15T09:56:26.976Z,11.94
2022-11-15T09:59:05.326Z,11.96
2022-11-15T10:01:31.755Z,11.97
2022-11-15T10:04:00.125Z,12.02
2022-11-15T10:06:27.370Z,12.10
2022-11-15T10:09:03.170Z,12.14
2022-11-15T10:11:39.631Z,12.17
2022-11-15T10:14:19.044Z,12.20
2022-11-15T10:16:48.235Z,12.22
2022-11-15T10:19:26.550Z,12.24
2022-11-15T10:21:55.778Z,12.31
2022-11-15T10:24:26.376Z,12.30
2022-11-15T10:26:52.718Z,12.38
2022-11-15T10:29:26.289Z,12.47
2022-11-15T10:31:53.387Z,12.44
2022-11-15T10:34:21.360Z,12.51
2022-11-15T10:36:54.536Z,12.52
2022-11-15T10:39:20.890Z,12.53
2022-11-15T10:41:47.308Z,12.51
2022-11-15T10:44:19.986Z,12.46
2022-11-15T10:46:49.559Z,12.44
2022-11-15T10:49:15.989Z,12.66
2022-11-15T10:52:00.891Z,12.59
2022-11-15T10:54:36.424Z,12.57
2022-11-15T10:57:07.117Z,12.57
2022-11-15T10:59:39.011Z,12.70
2022-11-15T11:02:32.184Z,12.81
2022-11-15T11:04:59.196Z,12.81
2022-11-15T11:07:27.323Z,12.84
2022-11-15T11:10:01.133Z,12.88
2022-11-15T11:12:29.217Z,12.85
2022-11-15T11:14:55.665Z,12.99
2022-11-15T11:17:30.316Z,12.95
2022-11-15T11:20:15.478Z,12.98
2022-11-15T11:23:00.211Z,13.08
2022-11-15T11:25:29.963Z,13.08
2022-11-15T11:28:02.410Z,13.14
2022-11-15T11:30:28.760Z,13.08
2022-11-15T11:33:13.972Z,13.08
2022-11-15T11:35:46.363Z,13.12
2022-11-15T11:38:19.776Z,13.12
2022-11-15T11:40:56.621Z,13.08
2022-11-15T11:43:42.022Z,13.02
2022-11-15T11:46:23.671Z,13.02
2022-11-15T11:48:53.775Z,12.98
2022-11-15T11:51:24.357Z,13.10
2022-11-15T11:53:55.172Z,13.01
2022-11-15T11:56:29.661Z,13.04
2022-11-15T11:59:01.461Z,13.11
2022-11-15T12:01:31.288Z,13.11
2022-11-15T12:04:04.683Z,13.17
2022-11-15T12:06:51.572Z,13.24
2022-11-15T12:09:21.730Z,13.23
2022-11-15T12:12:06.886Z,13.36
2022-11-15T12:14:48.914Z,13.38
2022-11-15T12:17:16.588Z,13.34
2022-11-15T12:19:43.769Z,13.38
2022-11-15T12:22:21.774Z,13.30
2022-11-15T12:24:52.251Z,13.25
2022-11-15T12:27:37.752Z,13.20
2022-11-15T12:30:13.109Z,13.23
2022-11-15T12:32:40.122Z,13.24
2022-11-15T12:35:21.046Z,13.24
2022-11-15T12:37:51.542Z,13.30
2022-11-15T12:40:27.161Z,13.31
2022-11-15T12:43:02.658Z,13.34
2022-11-15T12:45:34.063Z,13.41
2022-11-15T12:48:33.378Z,13.46
2022-11-15T12:51:00.676Z,13.47
2022-11-15T12:53:30.916Z,13.43
2022-11-15T12:56:12.805Z,13.44
2022-11-15T12:58:43.282Z,13.49
2022-11-15T13:01:10.401Z,13.57
2022-11-15T13:03:56.755Z,13.56
2022-11-15T13:06:43.078Z,13.55
2022-11-15T13:09:38.533Z,13.49
2022-11-15T13:12:15.794Z,13.46
2022-11-15T13:14:47.000Z,13.44
2022-11-15T13:17:19.486Z,13.46
2022-11-15T13:19:47.373Z,13.43
2022-11-15T13:22:32.522Z,13.39
2022-11-15T13:24:59.786Z,13.37
2022-11-15T13:27:26.185Z,13.37
2022-11-15T13:29:53.648Z,13.40
2022-11-15T13:32:20.751Z,13.40
2022-11-15T13:34:52.737Z,13.43
2022-11-15T13:37:22.457Z,13.51
2022-11-15T13:39:49.739Z,13.55
2022-11-15T13:42:17.069Z,13.57
2022-11-15T13:44:56.354Z,13.50
2022-11-15T13:47:22.832Z,13.48
2022-11-15T13:49:49.201Z,13.46
2022-11-15T13:52:17.337Z,13.42
2022-11-15T13:54:45.327Z,13.45
2022-11-15T13:57:15.076Z,13.45
2022-11-15T14:00:00.250Z,13.45
2022-11-15T14:02:31.885Z,13.46
2022-11-15T14:05:00.894Z,13.44
2022-11-15T14:07:28.699Z,13.50
2022-11-15T14:09:55.491Z,13.47
2022-11-15T14:12:35.409Z,13.52
2022-11-15T14:15:18.829Z,13.54
2022-11-15T14:17:50.005Z,13.55
2022-11-15T14:20:28.831Z,13.53
2022-11-15T14:22:56.732Z,13.52
2022-11-15T14:25:24.158Z,13.50
2022-11-15T14:28:09.416Z,13.45
2022-11-15T14:30:35.838Z,13.41
2022-11-15T14:33:02.296Z,13.37
2022-11-15T14:35:28.642Z,13.36
2022-11-15T14:37:55.059Z,13.31
2022-11-15T14:40:22.784Z,13.29
2022-11-15T14:42:50.515Z,13.27
2022-11-15T14:45:21.144Z,13.24
2022-11-15T14:47:47.638Z,13.20
2022-11-15T14:50:18.782Z,13.21
2022-11-15T14:52:45.788Z,13.20
2022-11-15T14:55:24.204Z,13.17
2022-11-15T14:57:50.648Z,13.14
2022-11-15T15:00:17.660Z,13.11
2022-11-15T15:02:45.199Z,13.13
2022-11-15T15:05:16.466Z,13.07
2022-11-15T15:07:43.336Z,13.11
2022-11-15T15:10:38.174Z,13.09
2022-11-15T15:12:57.009Z,13.07
2022-11-15T15:15:25.463Z,13.02
2022-11-15T15:17:51.831Z,13.01
2022-11-15T15:20:18.703Z,12.99
2022-11-15T15:22:45.391Z,13.01
2022-11-15T15:25:21.353Z,12.97
2022-11-15T15:27:47.717Z,12.95
2022-11-15T15:30:14.298Z,12.98
2022-11-15T15:32:40.674Z,12.92
2022-11-15T15:35:07.163Z,12.94
2022-11-15T15:37:34.621Z,12.91
2022-11-15T15:40:00.993Z,12.86
2022-11-15T15:42:27.428Z,12.88
2022-11-15T15:44:53.779Z,12.83
2022-11-15T15:47:24.069Z,12.85
2022-11-15T15:49:51.077Z,12.85
2022-11-15T15:52:17.580Z,12.84
2022-11-15T15:54:44.098Z,12.78
2022-11-15T15:57:12.594Z,12.76
2022-11-15T15:59:38.960Z,12.76
2022-11-15T16:02:05.548Z,12.75
2022-11-15T16:04:31.922Z,12.72
2022-11-15T16:07:01.975Z,12.68
2022-11-15T16:09:46.818Z,12.71
2022-11-15T16:12:13.182Z,12.69
2022-11-15T16:14:39.543Z,12.69
2022-11-15T16:17:06.152Z,12.68
2022-11-15T16:19:32.516Z,12.71
2022-11-15T16:21:58.868Z,12.71
2022-11-15T16:24:25.227Z,12.68
2022-11-15T16:26:52.119Z,12.67
2022-11-15T16:29:18.484Z,12.71
2022-11-15T16:31:44.849Z,12.71
2022-11-15T16:34:11.226Z,12.67
2022-11-15T16:36:37.677Z,12.67
2022-11-15T16:39:05.006Z,12.81
2022-11-15T16:41:31.523Z,12.97
2022-11-15T16:43:57.889Z,13.03
2022-11-15T16:46:25.541Z,13.02
2022-11-15T16:48:52.457Z,12.91
2022-11-15T16:51:18.802Z,13.12
2022-11-15T16:53:45.482Z,12.97
2022-11-15T16:56:19.920Z,13.18
2022-11-15T16:58:46.354Z,13.10
2022-11-15T17:01:17.454Z,13.09
2022-11-15T17:03:43.847Z,13.15
2022-11-15T17:06:11.103Z,13.22
2022-11-15T17:08:37.472Z,13.12
2022-11-15T17:11:10.456Z,13.07
2022-11-15T17:13:36.863Z,13.10
2022-11-15T17:16:05.883Z,13.14
2022-11-15T17:18:32.696Z,13.46
2022-11-15T17:21:03.142Z,13.37
2022-11-15T17:23:29.497Z,13.32
2022-11-15T17:26:17.846Z,13.12
2022-11-15T17:28:54.460Z,13.36
2022-11-15T17:31:20.817Z,13.22
2022-11-15T17:33:47.173Z,13.15
2022-11-15T17:36:13.664Z,13.33
2022-11-15T17:38:43.197Z,13.36
2022-11-15T17:41:11.955Z,13.28
2022-11-15T17:43:38.655Z,13.39
2022-11-15T17:46:06.337Z,13.41
2022-11-15T17:48:32.998Z,13.38
2022-11-15T17:51:01.184Z,13.19
2022-11-15T17:53:28.233Z,13.37
2022-11-15T17:55:54.662Z,13.43
2022-11-15T17:58:21.030Z,13.43
2022-11-15T18:00:48.079Z,13.52
2022-11-15T18:03:14.680Z,13.57
2022-11-15T18:05:43.678Z,13.39
2022-11-15T18:08:16.503Z,13.31
2022-11-15T18:10:42.879Z,13.44
2022-11-15T18:13:10.025Z,13.44
2022-11-15T18:15:36.509Z,13.36
2022-11-15T18:18:02.899Z,13.36
2022-11-15T18:20:29.261Z,13.15
2022-11-15T18:22:55.711Z,13.32
2022-11-15T18:25:22.085Z,13.11
2022-11-15T18:27:52.970Z,13.26
2022-11-15T18:30:19.416Z,13.22
2022-11-15T18:32:45.787Z,13.18
2022-11-15T18:35:12.162Z,13.17
2022-11-15T18:37:38.545Z,12.98
2022-11-15T18:40:05.166Z,13.23
2022-11-15T18:42:32.965Z,13.21
2022-11-15T18:44:59.455Z,13.28
2022-11-15T18:47:25.829Z,13.03
2022-11-15T18:49:52.229Z,13.18
2022-11-15T18:52:18.588Z,12.97
2022-11-15T18:54:45.116Z,13.08
2022-11-15T18:57:11.460Z,12.94
2022-11-15T18:59:37.923Z,12.82
2022-11-15T19:02:04.297Z,12.79
2022-11-15T19:04:30.669Z,12.57
2022-11-15T19:06:57.194Z,12.80
2022-11-15T19:09:27.191Z,12.61
2022-11-15T19:11:53.565Z,12.62
2022-11-15T19:14:24.086Z,12.81
2022-11-15T19:16:52.146Z,12.87
2022-11-15T19:19:20.096Z,12.59
2022-11-15T19:21:47.045Z,12.62
2022-11-15T19:24:14.264Z,12.64
2022-11-15T19:26:40.962Z,12.51
2022-11-15T19:29:08.111Z,12.56
2022-11-15T19:31:34.545Z,12.39
2022-11-15T19:34:02.673Z,12.42
2022-11-15T19:36:32.381Z,12.47
2022-11-15T19:38:59.261Z,12.55
2022-11-15T19:41:26.239Z,12.54
2022-11-15T19:43:53.151Z,12.40
2022-11-15T19:46:21.776Z,12.50
2022-11-15T19:48:48.141Z,12.62
2022-11-15T19:51:15.833Z,12.29
2022-11-15T19:53:42.574Z,12.38
2022-11-15T19:56:13.518Z,12.43
2022-11-15T19:58:40.134Z,12.29
2022-11-15T20:01:26.953Z,12.30
2022-11-15T20:03:54.727Z,12.42
2022-11-15T20:06:22.757Z,12.31
2022-11-15T20:08:49.933Z,12.37
2022-11-15T20:11:16.697Z,12.52
2022-11-15T20:13:43.321Z,12.52
2022-11-15T20:16:14.655Z,12.29
2022-11-15T20:18:41.075Z,12.35
2022-11-15T20:21:08.027Z,12.37
2022-11-15T20:23:34.463Z,12.32
2022-11-15T20:26:00.855Z,12.37
2022-11-15T20:28:28.175Z,12.20
2022-11-15T20:30:56.006Z,12.26
2022-11-15T20:33:22.732Z,12.20
2022-11-15T20:35:49.622Z,12.14
2022-11-15T20:38:16.115Z,12.01
2022-11-15T20:40:44.427Z,12.09
2022-11-15T20:43:12.072Z,12.11
2022-11-15T20:45:38.999Z,12.14
2022-11-15T20:48:05.770Z,12.31
2022-11-15T20:50:47.440Z,12.21
2022-11-15T20:53:15.627Z,12.08
2022-11-15T20:55:43.151Z,12.28
2022-11-15T20:58:10.229Z,12.25
2022-11-15T21:00:37.255Z,12.18
2022-11-15T21:03:06.708Z,12.25
2022-11-15T21:05:43.078Z,12.23
2022-11-15T21:08:10.190Z,12.18
2022-11-15T21:10:55.127Z,12.11
2022-11-15T21:13:21.561Z,12.17
2022-11-15T21:15:48.320Z,12.16
2022-11-15T21:18:14.800Z,12.09
2022-11-15T21:20:41.404Z,12.15
2022-11-15T21:23:07.925Z,12.31
2022-11-15T21:25:34.535Z,12.18
2022-11-15T21:28:00.904Z,12.10
2022-11-15T21:30:27.599Z,12.07
2022-11-15T21:32:54.030Z,12.05
2022-11-15T21:35:20.459Z,11.96
2022-11-15T21:37:49.490Z,11.93
2022-11-15T21:40:19.809Z,12.01
2022-11-15T21:42:46.222Z,12.04
2022-11-15T21:45:12.603Z,12.02
2022-11-15T21:47:42.050Z,12.01
2022-11-15T21:50:12.117Z,11.96
2022-11-15T21:52:38.509Z,11.89
2022-11-15T21:55:05.021Z,11.88
2022-11-15T21:57:31.440Z,11.83
2022-11-15T22:00:16.379Z,11.88
2022-11-15T22:02:42.723Z,11.90
2022-11-15T22:05:09.138Z,11.97
2022-11-15T22:07:35.537Z,11.91
2022-11-15T22:10:01.948Z,12.04
2022-11-15T22:12:29.826Z,11.97
2022-11-15T22:14:56.973Z,12.00
2022-11-15T22:17:24.542Z,11.93
2022-11-15T22:19:52.796Z,11.97
2022-11-15T22:22:19.668Z,11.91
2022-11-15T22:24:46.112Z,11.93
2022-11-15T22:27:12.558Z,11.95
2022-11-15T22:29:39.059Z,11.90
2022-11-15T22:32:07.954Z,11.84
2022-11-15T22:34:34.389Z,11.83
2022-11-15T22:39:47.284Z,11.81
2022-11-15T22:42:13.781Z,11.75
2022-11-15T22:44:40.218Z,11.71
2022-11-15T22:47:06.675Z,11.73
2022-11-15T22:49:33.077Z,11.79
2022-11-15T22:51:59.543Z,11.86
2022-11-15T22:54:25.972Z,11.83
2022-11-15T22:56:53.277Z,11.89
2022-11-15T22:59:19.714Z,11.80
2022-11-15T23:01:46.149Z,11.83
2022-11-15T23:04:12.602Z,11.77
2022-11-15T23:06:39.037Z,11.77
2022-11-15T23:09:05.472Z,11.75
2022-11-15T23:11:50.573Z,11.73
2022-11-15T23:14:16.999Z,11.73
2022-11-15T23:16:43.447Z,11.74
2022-11-15T23:19:11.158Z,11.68
2022-11-15T23:21:57.233Z,11.65
2022-11-15T23:24:24.141Z,11.67
2022-11-15T23:26:51.697Z,11.65
2022-11-15T23:29:19.795Z,11.65
2022-11-15T23:32:04.904Z,11.63
2022-11-15T23:34:32.066Z,11.66
2022-11-15T23:36:59.116Z,11.72
2022-11-15T23:39:25.604Z,11.73
2022-11-15T23:41:52.159Z,11.76
2022-11-15T23:44:18.643Z,11.75
2022-11-15T23:46:45.260Z,11.70
2022-11-15T23:49:11.760Z,11.78
2022-11-15T23:51:38.228Z,11.74
2022-11-15T23:54:04.709Z,11.78
2022-11-15T23:56:31.404Z,11.72
2022-11-15T23:58:58.127Z,11.72
